This is the latest recevied weather packets stored in our database for station/object N2OCK. If no packets are shown the sender has not sent any weather packets the latest 10 day(s).
| Time | Temp. | Humidity | Pressure | Rain* | Wind** | Luminosity | Snow |
|---|---|---|---|---|---|---|---|
| 1777920591 | 20° C | 47% | 1011.2 hPa | 0 mm | - | 639 W/m² | - |
| 1777920287 | 19.44° C | 46% | 1011.3 hPa | 0 mm | - | 646 W/m² | - |
| 1777919983 | 20° C | 42% | 1011.4 hPa | 0 mm | - | 654 W/m² | - |
| 1777919680 | 20° C | 45% | 1011.3 hPa | 0 mm | - | 658 W/m² | - |
| 1777919378 | 20° C | 47% | 1011.5 hPa | 0 mm | - | 672 W/m² | - |
| 1777919074 | 20° C | 46% | 1011.3 hPa | 0 mm | - | 677 W/m² | - |
| 1777918772 | 19.44° C | 49% | 1011.4 hPa | 0 mm | - | 682 W/m² | - |
| 1777918464 | 20° C | 46% | 1011.7 hPa | 0 mm | - | 688 W/m² | - |
| 1777918162 | 19.44° C | 48% | 1011.9 hPa | 0 mm | - | 696 W/m² | - |
| 1777917861 | 19.44° C | 49% | 1011.6 hPa | 0 mm | - | 704 W/m² | - |
| 1777917559 | 19.44° C | 49% | 1011.7 hPa | 0 mm | - | 703 W/m² | - |
| 1777917255 | 19.44° C | 49% | 1011.8 hPa | 0 mm | - | 707 W/m² | - |
| 1777916953 | 19.44° C | 50% | 1011.8 hPa | 0 mm | - | 711 W/m² | - |
| 1777916650 | 19.44° C | 49% | 1011.5 hPa | 0 mm | - | 715 W/m² | - |
| 1777916348 | 19.44° C | 49% | 1011.7 hPa | 0 mm | - | 720 W/m² | - |
| 1777916043 | 18.89° C | 50% | 1011.7 hPa | 0 mm | - | 725 W/m² | - |
| 1777915741 | 18.89° C | 47% | 1011.8 hPa | 0 mm | - | 724 W/m² | - |
| 1777915437 | 18.89° C | 47% | 1011.8 hPa | 0 mm | - | 726 W/m² | - |
| 1777915133 | 18.33° C | 47% | 1012 hPa | 0 mm | - | 733 W/m² | - |
| 1777914831 | 18.33° C | 46% | 1012 hPa | 0 mm | - | 731 W/m² | - |
| 1777914528 | 18.33° C | 45% | 1011.9 hPa | 0 mm | - | 731 W/m² | - |
| 1777914224 | 18.33° C | 45% | 1012.2 hPa | 0 mm | - | 736 W/m² | - |
| 1777913921 | 18.33° C | 45% | 1012.1 hPa | 0 mm | - | 732 W/m² | - |
| 1777913618 | 18.33° C | 46% | 1012 hPa | 0 mm | - | 735 W/m² | - |
| 1777913314 | 18.89° C | 46% | 1012.2 hPa | 0 mm | - | 738 W/m² | - |
* Rain latest hour (hover to see other rain measurements)
** Current wind speed in m/s (hover to see current wind gust speed)